Latest Weather Observations for Norseman Airport

IDW60801

Issued at 4:23 am WST Tuesday 6 December 2022 (issued every 10 minutes, with the page automatically refreshed every 10 minutes)

About weather observations | Map of weather stations | Latest weather observations for WA | Other Formats
Station Details ID: 012009 Name: NORSEMAN AERO Lat: -32.21 Lon: 121.75 Height: 262.5 m
Data from the previous 72 hours. | See also: Recent months at Norseman Airport
Date/Time
WST
Temp
°C
App
Temp
°C
Dew
Point
°C
Rel
Hum
%
Delta-T
°C
Wind Press
QNH
hPa
Press
MSL
hPa
Rain since
9am
mm
Dir  Spd
km/h
Gust
km/h
Spd
kts
Gust
kts
06/04:00am 15.5 13.4 12.4 82 1.7 SE 15 24 8 13 1011.9 1010.7 0.0
06/03:30am 15.7 13.6 12.5 81 1.8 SSE 15 20 8 11 1011.7 1010.5 0.0
06/03:00am 15.7 13.7 12.6 82 1.7 SSE 15 24 8 13 1011.6 1010.4 0.0
06/02:30am 15.9 13.9 12.6 81 1.8 S 15 22 8 12 1011.8 1010.6 0.0
06/02:00am 16.1 14.1 12.7 80 1.9 S 15 22 8 12 1011.8 1010.6 0.0
06/01:30am 16.6 15.4 12.8 78 2.1 SE 11 15 6 8 1011.9 1010.7 0.0
06/01:00am 16.6 15.4 12.8 78 2.1 SSE 11 17 6 9 1012.2 1011.0 0.0
06/12:30am 16.5 14.5 12.7 78 2.1 S 15 20 8 11 1012.2 1011.0 0.0
06/12:00am 16.8 15.2 12.7 77 2.3 SSE 13 19 7 10 1012.4 1011.2 0.0
 
Date/Time
WST
Temp
°C
App
Temp
°C
Dew
Point
°C
Rel
Hum
%
Delta-T
°C
Wind Press
QNH
hPa
Press
MSL
hPa
Rain since
9am
mm
Dir  Spd
km/h
Gust
km/h
Spd
kts
Gust
kts
05/11:30pm 16.7 16.2 12.7 77 2.2 ESE 7 11 4 6 1012.6 1011.4 0.0
05/11:00pm 16.8 15.2 12.7 77 2.3 ESE 13 19 7 10 1013.0 1011.8 0.0
05/10:30pm 17.2 15.2 12.7 75 2.5 SE 15 22 8 12 1013.0 1011.8 0.0
05/10:00pm 17.8 15.9 12.9 73 2.8 SE 15 19 8 10 1012.9 1011.7 0.0
05/09:30pm 18.2 16.6 12.9 71 3.0 SSE 13 20 7 11 1012.8 1011.6 0.0
05/09:00pm 18.6 16.2 12.8 69 3.3 SE 17 22 9 12 1012.4 1011.2 0.0
05/08:30pm 19.1 16.7 12.8 67 3.6 SSE 17 26 9 14 1012.1 1010.9 0.0
05/08:00pm 19.6 16.4 13.1 66 3.7 SSE 22 39 12 21 1011.5 1010.3 0.0
05/07:30pm 20.3 17.2 13.3 64 4.0 SSE 22 37 12 20 1011.2 1010.0 0.0
05/07:00pm 21.4 17.4 13.1 59 4.8 SSE 26 44 14 24 1010.6 1009.5 0.0
05/06:30pm 23.1 18.8 13.3 54 5.7 S 28 39 15 21 1010.2 1009.1 0.0
05/06:00pm 24.5 20.6 13.4 50 6.6 S 26 37 14 20 1010.0 1008.8 0.0
05/05:30pm 25.1 20.8 13.3 48 7.0 S 28 39 15 21 1009.8 1008.6 0.0
05/05:00pm 26.7 22.8 13.4 43 7.9 S 26 37 14 20 1009.4 1008.2 0.0
05/04:30pm 27.6 24.0 13.2 41 8.6 S 24 33 13 18 1009.2 1008.0 0.0
05/04:00pm 28.3 23.5 13.0 39 9.1 S 30 43 16 23 1008.9 1007.7 0.0
05/03:30pm 29.5 25.3 12.4 35 10.1 S 26 39 14 21 1008.5 1007.3 0.0
05/03:00pm 30.1 27.1 12.5 34 10.5 SSW 20 33 11 18 1008.4 1007.2 0.0
05/02:30pm 30.8 28.6 12.2 32 11.0 SW 15 24 8 13 1008.4 1007.2 0.0
05/02:00pm 29.7 28.1 11.7 33 10.6 SW 11 19 6 10 1008.7 1007.5 0.0
05/01:30pm 29.2 27.3 11.7 34 10.2 NNE 13 19 7 10 1009.2 1008.0 0.0
05/01:00pm 28.9 27.9 12.3 36 9.8 S 9 17 5 9 1009.6 1008.4 0.0
05/12:30pm 27.3 25.7 11.7 37 9.1 NW 11 17 6 9 1010.1 1009.0 0.0
05/12:00pm 27.1 25.5 11.6 38 9.0 N 11 20 6 11 1010.5 1009.4 0.0
05/11:30am 26.3 24.0 11.6 40 8.5 NNE 15 24 8 13 1011.2 1010.0 0.0
05/11:00am 25.7 24.2 11.8 42 8.0 NNE 11 24 6 13 1011.7 1010.5 0.0
05/10:30am 24.3 22.3 11.6 45 7.3 ESE 13 22 7 12 1012.1 1010.9 0.0
05/10:00am 23.0 20.6 11.4 48 6.6 ENE 15 24 8 13 1012.5 1011.3 0.0
05/09:30am 22.5 20.2 11.9 51 6.0 NE 15 26 8 14 1012.9 1011.7 0.0
05/09:00am 21.3 18.7 11.9 55 5.3 NE 17 30 9 16 1013.2 1012.0 0.0
05/08:30am 20.5 18.0 12.2 59 4.7 E 17 22 9 12 1013.5 1012.4 0.0
05/08:00am 20.1 17.6 12.3 61 4.4 E 17 28 9 15 1013.7 1012.6 0.0
05/07:30am 18.6 15.6 11.9 65 3.7 E 19 26 10 14 1014.1 1013.0 0.0
05/07:00am 17.6 14.6 11.9 69 3.2 E 19 32 10 17 1013.8 1012.7 0.0
05/06:30am 16.9 13.9 12.0 73 2.7 E 19 32 10 17 1013.7 1012.6 0.0
05/06:00am 16.1 13.8 11.9 76 2.3 ESE 15 20 8 11 1013.8 1012.7 0.0
05/05:30am 15.5 13.6 11.7 78 2.1 ESE 13 19 7 10 1013.7 1012.6 0.0
05/05:00am 15.2 13.2 11.6 79 2.0 SE 13 19 7 10 1013.8 1012.7 0.0
05/04:30am 15.2 13.2 11.6 79 2.0 ESE 13 19 7 10 1013.7 1012.6 0.0
05/04:00am 15.4 13.8 11.6 78 2.1 SE 11 15 6 8 1014.0 1012.9 0.0
05/03:30am 15.4 13.8 11.6 78 2.1 ESE 11 17 6 9 1013.9 1012.8 0.0
05/03:00am 15.4 13.8 11.6 78 2.1 ESE 11 17 6 9 1014.1 1013.0 0.0
05/02:30am 15.5 13.6 11.7 78 2.1 E 13 20 7 11 1014.3 1013.2 0.0
05/02:00am 15.6 13.6 11.6 77 2.2 ESE 13 19 7 10 1014.6 1013.5 0.0
05/01:30am 15.8 14.2 11.6 76 2.3 ESE 11 20 6 11 1014.6 1013.5 0.0
05/01:00am 15.9 14.7 11.5 75 2.4 ESE 9 20 5 11 1014.8 1013.7 0.0
05/12:30am 16.1 14.1 11.5 74 2.5 ESE 13 20 7 11 1014.7 1013.6 0.0
05/12:00am 16.2 14.2 11.4 73 2.6 E 13 20 7 11 1015.0 1013.9 0.0
 
Date/Time
WST
Temp
°C
App
Temp
°C
Dew
Point
°C
Rel
Hum
%
Delta-T
°C
Wind Press
QNH
hPa
Press
MSL
hPa
Rain since
9am
mm
Dir  Spd
km/h
Gust
km/h
Spd
kts
Gust
kts
04/11:30pm 16.5 13.3 11.2 71 2.9 E 19 28 10 15 1015.6 1014.4 0.0
04/11:00pm 16.7 14.2 11.2 70 3.0 E 15 28 8 15 1015.8 1014.6 0.0
04/10:30pm 17.0 13.8 11.1 68 3.2 E 19 28 10 15 1015.7 1014.5 0.0
04/10:00pm 17.4 12.4 11.0 66 3.5 E 28 43 15 23 1015.7 1014.5 0.0
04/09:30pm 17.9 12.9 10.8 63 3.9 E 28 43 15 23 1015.6 1014.4 0.0
04/09:00pm 18.2 12.8 10.8 62 4.0 E 30 44 16 24 1015.6 1014.4 0.0
04/08:41pm 18.3 13.3 10.9 62 4.1 ESE 28 48 15 26 1015.3 1014.1 0.0
04/08:30pm 18.4 13.8 11.0 62 4.1 ESE 26 43 14 23 1015.5 1014.3 0.0
04/08:00pm 19.0 14.4 11.1 60 4.4 ESE 26 43 14 23 1014.9 1013.8 0.0
04/07:30pm 19.5 15.3 11.0 58 4.7 ESE 24 37 13 20 1014.8 1013.7 0.0
04/07:25pm 19.7 14.8 11.2 58 4.7 ESE 28 48 15 26 1014.8 1013.7 0.0
04/07:00pm 21.5 17.3 11.2 52 5.8 ESE 24 44 13 24 1014.4 1013.3 0.0
04/06:30pm 22.5 17.7 11.6 50 6.2 SE 28 48 15 26 1014.0 1012.9 0.0
04/06:00pm 24.2 18.6 11.5 45 7.2 SE 32 46 17 25 1013.3 1012.1 0.0
04/05:44pm 25.2 20.4 11.7 43 7.8 ESE 28 46 15 25 1012.9 1011.7 0.0
04/05:30pm 25.4 20.6 11.6 42 7.9 ESE 28 44 15 24 1012.6 1011.4 0.0
04/05:24pm 25.9 20.7 11.6 40 8.2 ESE 30 48 16 26 1012.5 1011.3 0.0
04/05:00pm 26.5 21.0 11.8 40 8.5 SE 32 44 17 24 1012.5 1011.3 0.0
04/04:30pm 28.5 25.2 11.6 35 9.8 ESE 20 32 11 17 1012.2 1011.0 0.0
04/04:00pm 28.6 24.9 11.6 34 9.9 ESE 22 35 12 19 1012.3 1011.1 0.0
04/03:30pm 28.8 25.4 11.4 34 10.1 ESE 20 37 11 20 1012.5 1011.3 0.0
04/03:00pm 28.5 25.2 11.6 35 9.9 E 20 35 11 19 1012.5 1011.3 0.0
04/02:30pm 28.6 24.9 11.6 34 9.9 SE 22 43 12 23 1012.6 1011.4 0.0
04/02:00pm 28.3 24.2 11.4 35 9.8 SE 24 39 13 21 1012.7 1011.5 0.0
04/01:30pm 28.3 25.0 10.9 34 10.0 ESE 19 30 10 16 1013.0 1011.8 0.0
04/01:00pm 27.4 23.8 10.6 35 9.6 SE 20 35 11 19 1013.3 1012.1 0.0
04/12:30pm 26.8 23.3 10.9 37 9.1 ESE 20 33 11 18 1013.3 1012.1 0.0
04/12:00pm 26.3 22.9 11.2 38 8.7 ESE 20 37 11 20 1014.0 1012.9 0.0
04/11:30am 25.1 21.0 10.2 39 8.3 SE 22 33 12 18 1014.2 1013.1 0.0
04/11:00am 23.6 19.9 10.3 43 7.4 ESE 20 32 11 17 1015.0 1013.9 0.0
04/10:30am 22.8 18.8 10.6 46 6.8 ESE 22 35 12 19 1015.7 1014.5 0.0
04/10:00am 21.2 17.7 11.0 52 5.7 ESE 20 32 11 17 1016.5 1015.3 0.0
04/09:30am 21.7 19.0 11.7 53 5.7 E 17 26 9 14 1016.8 1015.6 0.0
04/09:00am 19.4 16.1 10.9 58 4.7 E 19 28 10 15 1016.8 1015.6 0.0
04/08:30am 18.2 14.9 11.5 65 3.7 SE 20 28 11 15 1016.9 1015.8 0.0
04/08:00am 18.3 15.4 10.9 62 4.0 ESE 17 24 9 13 1016.9 1015.8 0.0
04/07:30am 17.6 13.3 10.7 64 3.7 SE 24 35 13 19 1016.6 1015.4 0.0
04/07:00am 17.8 15.0 11.4 66 3.5 ESE 17 26 9 14 1016.7 1015.5 0.0
04/06:30am 16.5 13.1 11.2 71 2.9 SE 20 33 11 18 1016.7 1015.5 0.0
04/06:00am 16.0 13.5 11.2 73 2.6 SE 15 24 8 13 1017.0 1015.9 0.0
04/05:30am 15.7 13.2 11.1 74 2.5 SE 15 20 8 11 1016.4 1015.2 0.0
04/05:00am 15.5 12.6 10.9 74 2.5 SE 17 30 9 16 1015.7 1014.5 0.0
04/04:30am 15.2 12.3 11.0 76 2.3 SE 17 22 9 12 1015.0 1013.9 0.0
04/04:00am 15.2 12.6 10.8 75 2.4 SSE 15 20 8 11 1015.3 1014.1 0.0
04/03:30am 15.1 12.9 10.9 76 2.3 SSE 13 24 7 13 1014.8 1013.7 0.0
04/03:00am 15.2 12.7 11.0 76 2.3 SE 15 22 8 12 1014.6 1013.5 0.0
04/02:30am 14.9 12.4 10.9 77 2.1 SSE 15 22 8 12 1014.1 1013.0 0.0
04/02:00am 14.7 12.9 10.7 77 2.1 SSE 11 17 6 9 1014.3 1013.2 0.0
04/01:30am 14.7 12.8 10.5 76 2.2 S 11 19 6 10 1014.3 1013.2 0.0
04/01:00am 15.0 12.7 10.6 75 2.4 SE 13 17 7 9 1014.2 1013.1 0.0
04/12:30am 15.3 13.5 10.7 74 2.5 SE 11 22 6 12 1014.2 1013.1 0.0
04/12:00am 15.6 13.0 10.6 72 2.7 SE 15 24 8 13 1014.4 1013.3 0.0
 
Date/Time
WST
Temp
°C
App
Temp
°C
Dew
Point
°C
Rel
Hum
%
Delta-T
°C
Wind Press
QNH
hPa
Press
MSL
hPa
Rain since
9am
mm
Dir  Spd
km/h
Gust
km/h
Spd
kts
Gust
kts
03/11:30pm 15.9 13.3 10.7 71 2.8 SE 15 24 8 13 1014.7 1013.6 0.0
03/11:00pm 16.3 12.8 10.8 70 3.0 SSE 20 32 11 17 1014.7 1013.6 0.0
03/10:30pm 16.8 12.9 10.9 68 3.2 SE 22 33 12 18 1014.9 1013.8 0.0
03/10:00pm 17.5 13.6 10.9 65 3.6 SSE 22 39 12 21 1014.6 1013.5 0.0
03/09:30pm 18.2 14.0 11.0 63 3.9 SSE 24 39 13 21 1014.5 1013.4 0.0
03/09:00pm 19.1 14.9 11.2 60 4.4 SSE 24 35 13 19 1014.0 1012.9 0.0
03/08:30pm 20.0 15.8 11.0 56 5.0 SSE 24 37 13 20 1014.0 1012.9 0.0
03/08:19pm 20.4 15.4 11.1 55 5.2 SSE 28 48 15 26 1013.5 1012.4 0.0
03/08:00pm 21.2 16.5 10.7 51 5.8 SSE 26 41 14 22 1013.5 1012.4 0.0
03/07:30pm 22.1 17.8 10.9 49 6.3 SSE 24 39 13 21 1012.7 1011.5 0.0
03/07:00pm 23.5 19.3 11.2 46 7.0 SSE 24 41 13 22 1011.8 1010.6 0.0
03/06:30pm 25.3 20.0 11.1 41 8.1 SSE 30 44 16 24 1010.9 1009.8 0.0
03/06:00pm 27.4 22.5 11.4 37 9.3 SSE 28 41 15 22 1010.4 1009.3 0.0
03/05:30pm 29.0 24.0 11.1 33 10.4 S 28 44 15 24 1010.0 1008.8 0.0
03/05:00pm 30.5 27.0 11.0 30 11.4 S 20 28 11 15 1009.5 1008.3 0.0
03/04:30pm 30.7 26.7 10.6 29 11.6 S 22 33 12 18 1009.5 1008.3 0.0
03/04:00pm 31.4 28.0 10.7 28 12.1 S 19 28 10 15 1009.4 1008.2 0.0
03/03:30pm 31.7 27.9 11.0 28 12.1 SSE 22 32 12 17 1009.3 1008.1 0.0
03/03:00pm 32.2 28.8 11.4 28 12.3 S 20 30 11 16 1009.1 1007.9 0.0
03/02:30pm 32.2 29.2 10.8 27 12.5 SSE 17 35 9 19 1009.2 1008.0 0.0
03/02:00pm 31.4 28.8 10.7 28 12.1 ESE 15 26 8 14 1009.5 1008.3 0.0
03/01:30pm 31.3 29.4 10.6 28 12.0 SSE 11 20 6 11 1009.8 1008.6 0.0
03/01:00pm 30.4 27.1 10.9 30 11.3 S 19 28 10 15 1010.1 1009.0 0.0
03/12:30pm 30.0 27.6 11.5 32 10.8 S 15 22 8 12 1010.4 1009.3 0.0
03/12:00pm 28.5 26.5 11.6 35 9.9 SE 13 24 7 13 1010.7 1009.6 0.0
03/11:30am 27.1 25.1 11.6 38 9.0 SE 13 20 7 11 1011.2 1010.0 0.0
03/11:00am 25.9 23.3 12.0 42 8.1 SSE 17 28 9 15 1011.5 1010.3 0.0
03/10:30am 24.0 20.9 11.7 46 7.0 SSE 19 26 10 14 1011.6 1010.4 0.0
03/10:00am 22.5 19.3 11.9 51 6.0 S 20 32 11 17 1012.2 1011.0 0.0
03/09:30am 21.5 18.9 12.1 55 5.3 S 17 24 9 13 1012.7 1011.5 0.0
03/09:00am 20.3 17.1 12.0 59 4.7 S 20 37 11 20 1012.9 1011.7 0.0
03/08:30am 19.5 16.7 12.5 64 4.0 S 19 26 10 14 1012.9 1011.7 0.0
03/08:00am 18.7 16.7 12.7 68 3.4 SSE 15 20 8 11 1012.8 1011.6 0.0
03/07:30am 17.7 16.0 12.6 72 2.9 S 13 24 7 13 1012.6 1011.4 0.0
03/07:00am 16.6 14.6 12.8 78 2.1 SSE 15 20 8 11 1012.6 1011.4 0.0
03/06:30am 16.2 14.2 12.6 79 2.0 SSE 15 19 8 10 1012.1 1010.9 0.0
03/06:00am 15.4 13.3 12.3 82 1.7 SSE 15 26 8 14 1012.0 1010.8 0.0
03/05:30am 15.2 13.5 12.3 83 1.6 SE 13 22 7 12 1011.8 1010.6 0.0
03/05:00am 15.0 12.5 12.3 84 1.5 SSE 17 24 9 13 1011.2 1010.0 0.0
03/04:30am 15.0 12.0 12.1 83 1.6 S 19 28 10 15 1010.8 1009.7 0.0

Other formats

Comma delimited format used in spreadsheet applications
http://www.bom.gov.au/fwo/IDW60801/IDW60801.95642.axf

JavaScript Object Notation format (JSON) in row-major order
http://www.bom.gov.au/fwo/IDW60801/IDW60801.95642.json

Data quality

Most of these data are generated automatically and are frequently updated. Quality checks on data are not normally performed. It is possible for incorrect values to appear. Refer to information at About Latest Weather Observations and please check the disclaimer before using these data.